Saint Barthelemy, St. Barthelemy

11:09 AM AST on July 30, 2016 (GMT -0400)
D209 | | Change Station

Elev 0 ft 17.90 °N, 62.85 °W | Updated 3 minutes ago

Light Rain Showers
Light Showers Rain
84.6 °F
Feels Like 93 °F
N
4.3
Wind Variable Wind from NNE
Gusts 9.9 mph

Today
High -- | Low -- °F
--% Chance of Precip.
Yesterday
High -- | Low -- °F
Precip. -- in
Pressure 30.01 in
Visibility 6.2 miles
Clouds Scattered Clouds 1900 ft
Scattered Clouds 3800 ft
Heat Index 93 °F
Dew Point 76 °F
Humidity 74%
Rainfall 0.00 in
Snow Depth Not available.
5:49 AM 6:45 PM
Waning Crescent, 13% visible
METAR TQPF 301500Z 06009KT 9999 -SHRA SCT019 SCT038 27/24 Q1016
Pressure 30.01 in
Visibility 6.2 miles
Clouds Scattered Clouds 1900 ft
Scattered Clouds 3800 ft
Heat Index 93 °F
Dew Point 76 °F
Humidity 74%
Rainfall 0.00 in
Snow Depth Not available.
5:49 AM 6:45 PM
Waning Crescent, 13% visible
METAR TQPF 301500Z 06009KT 9999 -SHRA SCT019 SCT038 27/24 Q1016

10-Day Weather Forecast

No radar image for this location.
×

Almanac

Astronomy

Jul. 30, 2016 Rise Set
Actual Time
Civil Twilight
Nautical Twilight
Astronomical Twilight
Moon
Length of Visible Light
Length of Day
Tomorrow will be .
, % of the Moon is Illuminated

Today's Extremes

Country Highs Country Lows

Community

WunderPhotos

Upload Photos

1,928,568 photos uploaded!

WunderBlog® & News

Nearby

Air Quality

  Air Quality AQ Index Pollutant
Not available.

Snow Depth

Station Depth Elevation

Earthquake Activity

City Distance Mag. Time & Date
Minimum magnitude displayed is 2.5.

Coastal Water Temperatures

Place Temperature

Stations

Nearby Weather Stations

Station Location Temp. Windchill Dew Point Humidity Wind Precip. Elev Updated Type